createdAt,value
2018-12-10T00:00:48.677Z,982.96
2018-12-10T00:01:48.619Z,983.05
2018-12-10T00:02:48.561Z,983.00
2018-12-10T00:03:48.503Z,982.89
2018-12-10T00:04:48.444Z,982.90
2018-12-10T00:05:48.386Z,982.99
2018-12-10T00:06:48.327Z,983.02
2018-12-10T00:07:48.270Z,983.14
2018-12-10T00:08:48.216Z,982.93
2018-12-10T00:09:48.153Z,983.07
2018-12-10T00:10:48.094Z,983.03
2018-12-10T00:11:48.037Z,983.05
2018-12-10T00:12:47.979Z,982.99
2018-12-10T00:13:47.920Z,983.01
2018-12-10T00:14:47.862Z,983.09
2018-12-10T00:15:47.806Z,983.18
2018-12-10T00:16:47.746Z,983.13
2018-12-10T00:17:47.686Z,983.05
2018-12-10T00:18:47.627Z,983.06
2018-12-10T00:19:47.571Z,983.09
2018-12-10T00:20:47.510Z,983.15
2018-12-10T00:21:47.453Z,983.16
2018-12-10T00:22:47.394Z,983.25
2018-12-10T00:23:47.337Z,983.29
2018-12-10T00:24:47.279Z,983.35
2018-12-10T00:25:47.220Z,983.40
2018-12-10T00:26:47.163Z,983.32
2018-12-10T00:27:47.103Z,983.26
2018-12-10T00:28:47.045Z,983.34
2018-12-10T00:29:46.987Z,983.36
2018-12-10T00:30:46.928Z,983.37
2018-12-10T00:31:46.870Z,983.38
2018-12-10T00:32:46.811Z,983.36
2018-12-10T00:33:46.754Z,983.35
2018-12-10T00:34:46.694Z,983.28
2018-12-10T00:35:46.637Z,983.24
2018-12-10T00:36:46.578Z,983.25
2018-12-10T00:37:46.528Z,983.29
2018-12-10T00:38:46.471Z,983.28
2018-12-10T00:39:46.403Z,983.29
2018-12-10T00:40:46.345Z,983.36
2018-12-10T00:41:46.288Z,983.39
2018-12-10T00:42:46.233Z,983.38
2018-12-10T00:43:46.170Z,983.40
2018-12-10T00:44:46.111Z,983.48
2018-12-10T00:45:46.052Z,983.57
2018-12-10T00:46:45.999Z,983.54
2018-12-10T00:47:45.937Z,983.59
2018-12-10T00:48:45.877Z,983.55
2018-12-10T00:49:45.823Z,983.58
2018-12-10T00:50:45.763Z,983.64
2018-12-10T00:51:45.702Z,983.66
2018-12-10T00:52:45.687Z,983.71
2018-12-10T00:53:45.588Z,983.68
2018-12-10T00:54:45.527Z,983.72
2018-12-10T00:55:45.471Z,983.80
2018-12-10T00:56:45.410Z,983.82
2018-12-10T00:57:45.468Z,983.78
2018-12-10T00:58:45.295Z,983.78
2018-12-10T00:59:45.240Z,983.79
2018-12-10T01:00:45.177Z,983.82
2018-12-10T01:01:45.120Z,983.78
2018-12-10T01:02:45.062Z,983.80
2018-12-10T01:03:45.003Z,983.67
2018-12-10T01:04:44.946Z,983.78
2018-12-10T01:05:44.885Z,983.77
2018-12-10T01:06:44.829Z,983.74
2018-12-10T01:07:44.772Z,983.78
2018-12-10T01:08:44.711Z,983.70
2018-12-10T01:09:44.670Z,983.77
2018-12-10T01:10:44.594Z,983.86
2018-12-10T01:11:44.537Z,983.84
2018-12-10T01:12:44.477Z,983.84
2018-12-10T01:13:44.418Z,983.89
2018-12-10T01:14:44.361Z,983.93
2018-12-10T01:15:44.302Z,983.96
2018-12-10T01:16:44.244Z,983.99
2018-12-10T01:17:44.185Z,984.00
2018-12-10T01:18:44.324Z,984.05
2018-12-10T01:19:44.070Z,984.07
2018-12-10T01:20:44.010Z,984.02
2018-12-10T01:21:43.952Z,984.05
2018-12-10T01:22:43.893Z,984.04
2018-12-10T01:23:43.836Z,984.07
2018-12-10T01:24:43.777Z,984.06
2018-12-10T01:25:43.719Z,984.02
2018-12-10T01:26:43.662Z,984.06
2018-12-10T01:27:43.603Z,984.08
2018-12-10T01:28:43.543Z,984.05
2018-12-10T01:29:43.485Z,984.02
2018-12-10T01:30:43.427Z,983.99
2018-12-10T01:31:43.368Z,984.09
2018-12-10T01:32:43.309Z,984.16
2018-12-10T01:33:43.252Z,984.19
2018-12-10T01:34:43.198Z,984.18
2018-12-10T01:35:43.135Z,984.21
2018-12-10T01:36:43.075Z,984.18
2018-12-10T01:37:43.018Z,984.13
2018-12-10T01:38:42.963Z,984.12
2018-12-10T01:39:42.901Z,984.11
2018-12-10T01:40:42.842Z,984.18
2018-12-10T01:41:43.370Z,984.13
2018-12-10T01:42:42.730Z,984.13
2018-12-10T01:43:42.670Z,984.13
2018-12-10T01:44:42.609Z,984.19
2018-12-10T01:45:42.551Z,984.17
2018-12-10T01:46:42.496Z,984.23
2018-12-10T01:47:42.435Z,984.26
2018-12-10T01:48:42.376Z,984.34
2018-12-10T01:49:42.317Z,984.28
2018-12-10T01:50:42.259Z,984.28
2018-12-10T01:51:42.202Z,984.26
2018-12-10T01:52:42.143Z,984.21
2018-12-10T01:53:42.087Z,984.15
2018-12-10T01:54:42.027Z,984.20
2018-12-10T01:55:41.968Z,984.27
2018-12-10T01:56:41.911Z,984.30
2018-12-10T01:57:41.852Z,984.31
2018-12-10T01:58:41.792Z,984.34
2018-12-10T01:59:41.739Z,984.38
2018-12-10T02:00:41.676Z,984.34
2018-12-10T02:01:41.617Z,984.31
2018-12-10T02:02:41.560Z,984.40
2018-12-10T02:03:41.502Z,984.44
2018-12-10T02:04:41.442Z,984.38
2018-12-10T02:05:41.383Z,984.24
2018-12-10T02:06:41.326Z,984.33
2018-12-10T02:07:41.271Z,984.42
2018-12-10T02:08:41.211Z,984.44
2018-12-10T02:09:41.151Z,984.43
2018-12-10T02:10:41.098Z,984.44
2018-12-10T02:11:41.034Z,984.43
2018-12-10T02:12:40.975Z,984.37
2018-12-10T02:13:40.916Z,984.46
2018-12-10T02:14:40.858Z,984.42
2018-12-10T02:15:41.102Z,984.44
2018-12-10T02:16:40.745Z,984.49
2018-12-10T02:17:40.684Z,984.51
2018-12-10T02:18:40.625Z,984.49
2018-12-10T02:19:41.413Z,984.46
2018-12-10T02:20:40.507Z,984.49
2018-12-10T02:21:40.449Z,984.51
2018-12-10T02:22:40.391Z,984.46
2018-12-10T02:23:40.334Z,984.53
2018-12-10T02:24:40.274Z,984.53
2018-12-10T02:25:40.215Z,984.56
2018-12-10T02:26:40.159Z,984.50
2018-12-10T02:27:40.400Z,984.54
2018-12-10T02:28:40.040Z,984.59
2018-12-10T02:29:39.981Z,984.55
2018-12-10T02:30:39.924Z,984.57
2018-12-10T02:31:39.868Z,984.61
2018-12-10T02:32:39.809Z,984.61
2018-12-10T02:33:39.753Z,984.62
2018-12-10T02:34:39.692Z,984.68
2018-12-10T02:35:39.636Z,984.67
2018-12-10T02:36:39.574Z,984.66
2018-12-10T02:37:39.517Z,984.74
2018-12-10T02:38:39.459Z,984.76
2018-12-10T02:39:39.398Z,984.78
2018-12-10T02:40:39.339Z,984.73
2018-12-10T02:41:39.281Z,984.86
2018-12-10T02:42:39.226Z,984.83
2018-12-10T02:43:39.165Z,984.90
2018-12-10T02:44:39.107Z,984.86
2018-12-10T02:45:39.048Z,984.82
2018-12-10T02:46:38.989Z,984.90
2018-12-10T02:47:38.933Z,984.93
2018-12-10T02:48:39.002Z,984.96
2018-12-10T02:49:38.814Z,984.93
2018-12-10T02:50:38.756Z,984.95
2018-12-10T02:51:38.706Z,984.98
2018-12-10T02:52:38.643Z,985.07
2018-12-10T02:53:38.581Z,985.06
2018-12-10T02:54:38.530Z,985.07
2018-12-10T02:55:38.465Z,985.12
2018-12-10T02:56:38.413Z,985.05
2018-12-10T02:57:38.349Z,984.99
2018-12-10T02:58:38.334Z,984.96
2018-12-10T02:59:38.231Z,984.97
2018-12-10T03:00:38.172Z,984.98
2018-12-10T03:01:38.116Z,984.98
2018-12-10T03:02:38.055Z,984.95
2018-12-10T03:03:37.997Z,984.98
2018-12-10T03:04:37.939Z,985.01
2018-12-10T03:05:37.879Z,985.12
2018-12-10T03:06:37.822Z,985.11
2018-12-10T03:07:37.763Z,985.17
2018-12-10T03:08:37.703Z,985.16
2018-12-10T03:09:37.649Z,985.19
2018-12-10T03:10:37.589Z,985.20
2018-12-10T03:11:37.532Z,985.29
2018-12-10T03:12:37.470Z,985.26
2018-12-10T03:13:37.416Z,985.28
2018-12-10T03:14:37.353Z,985.34
2018-12-10T03:15:37.295Z,985.39
2018-12-10T03:16:37.237Z,985.41
2018-12-10T03:17:37.178Z,985.42
2018-12-10T03:18:37.121Z,985.37
2018-12-10T03:19:37.066Z,985.41
2018-12-10T03:20:37.002Z,985.31
2018-12-10T03:21:36.949Z,985.38
2018-12-10T03:22:36.891Z,985.36
2018-12-10T03:23:36.829Z,985.34
2018-12-10T03:24:36.769Z,985.29
2018-12-10T03:25:36.710Z,985.36
2018-12-10T03:26:36.653Z,985.37
2018-12-10T03:27:36.598Z,985.30
2018-12-10T03:28:36.541Z,985.33
2018-12-10T03:29:36.477Z,985.33
2018-12-10T03:30:36.420Z,985.37
2018-12-10T03:31:36.368Z,985.34
2018-12-10T03:32:36.304Z,985.34
2018-12-10T03:33:36.243Z,985.37
2018-12-10T03:34:36.184Z,985.39
2018-12-10T03:35:36.201Z,985.44
2018-12-10T03:36:36.067Z,985.46
2018-12-10T03:37:37.240Z,985.46
2018-12-10T03:38:35.952Z,985.37
2018-12-10T03:39:35.893Z,985.43
2018-12-10T03:40:35.833Z,985.40
2018-12-10T03:41:35.776Z,985.46
2018-12-10T03:42:35.717Z,985.45
2018-12-10T03:43:35.659Z,985.46
2018-12-10T03:44:35.601Z,985.47
2018-12-10T03:45:35.542Z,985.46
2018-12-10T03:46:35.486Z,985.48
2018-12-10T03:47:35.425Z,985.43
2018-12-10T03:48:35.367Z,985.45
2018-12-10T03:49:35.308Z,985.45
2018-12-10T03:50:35.249Z,985.46
2018-12-10T03:51:35.192Z,985.49
2018-12-10T03:52:35.132Z,985.47
2018-12-10T03:53:35.075Z,985.48
2018-12-10T03:54:35.018Z,985.49
2018-12-10T03:55:34.965Z,985.49
2018-12-10T03:56:34.898Z,985.51
2018-12-10T03:57:34.843Z,985.49
2018-12-10T03:58:34.782Z,985.54
2018-12-10T03:59:34.734Z,985.58
2018-12-10T04:00:34.666Z,985.59
2018-12-10T04:01:34.607Z,985.59
2018-12-10T04:02:34.548Z,985.61
2018-12-10T04:03:34.493Z,985.62
2018-12-10T04:04:34.431Z,985.65
2018-12-10T04:05:34.372Z,985.67
2018-12-10T04:06:34.313Z,985.65
2018-12-10T04:07:34.255Z,985.64
2018-12-10T04:08:34.196Z,985.65
2018-12-10T04:09:34.137Z,985.64
2018-12-10T04:10:34.197Z,985.68
2018-12-10T04:11:34.021Z,985.71
2018-12-10T04:12:33.973Z,985.59
2018-12-10T04:13:33.910Z,985.63
2018-12-10T04:14:33.848Z,985.66
2018-12-10T04:15:33.791Z,985.73
2018-12-10T04:16:33.729Z,985.73
2018-12-10T04:17:33.675Z,985.73
2018-12-10T04:18:33.617Z,985.71
2018-12-10T04:19:33.557Z,985.71
2018-12-10T04:20:33.494Z,985.70
2018-12-10T04:21:33.437Z,985.71
2018-12-10T04:22:33.380Z,985.73
2018-12-10T04:23:33.320Z,985.69
2018-12-10T04:24:33.262Z,985.68
2018-12-10T04:25:33.204Z,985.69
2018-12-10T04:26:33.146Z,985.72
2018-12-10T04:27:33.086Z,985.69
2018-12-10T04:28:33.027Z,985.67
2018-12-10T04:29:33.007Z,985.76
2018-12-10T04:30:32.912Z,985.74
2018-12-10T04:31:32.853Z,985.74
2018-12-10T04:32:32.794Z,985.71
2018-12-10T04:33:32.734Z,985.81
2018-12-10T04:34:32.679Z,985.81
2018-12-10T04:35:32.619Z,985.83
2018-12-10T04:36:32.560Z,985.86
2018-12-10T04:37:32.501Z,985.88
2018-12-10T04:38:32.442Z,985.83
2018-12-10T04:39:32.384Z,985.79
2018-12-10T04:40:32.325Z,985.77
2018-12-10T04:41:32.266Z,985.73
2018-12-10T04:42:32.209Z,985.76
2018-12-10T04:43:32.151Z,985.80
2018-12-10T04:44:32.092Z,985.80
2018-12-10T04:45:32.034Z,985.73
2018-12-10T04:46:31.996Z,985.79
2018-12-10T04:47:31.922Z,985.90
2018-12-10T04:48:31.860Z,985.82
2018-12-10T04:49:31.802Z,985.77
2018-12-10T04:50:31.741Z,985.84
2018-12-10T04:51:31.686Z,985.86
2018-12-10T04:52:31.625Z,985.86
2018-12-10T04:53:31.567Z,985.84
2018-12-10T04:54:31.506Z,985.84
2018-12-10T04:55:31.448Z,985.86
2018-12-10T04:56:31.389Z,985.87
2018-12-10T04:57:31.331Z,985.92
2018-12-10T04:58:31.274Z,985.92
2018-12-10T04:59:31.217Z,985.92
2018-12-10T05:00:31.174Z,985.85
2018-12-10T05:01:31.099Z,985.80
2018-12-10T05:02:31.039Z,985.83
2018-12-10T05:03:30.980Z,985.83
2018-12-10T05:04:30.921Z,985.84
2018-12-10T05:05:30.863Z,985.86
2018-12-10T05:06:30.810Z,985.89
2018-12-10T05:07:30.746Z,985.87
2018-12-10T05:08:30.687Z,985.97
2018-12-10T05:09:30.629Z,985.95
2018-12-10T05:10:30.570Z,985.92
2018-12-10T05:11:30.514Z,985.96
2018-12-10T05:12:30.453Z,985.93
2018-12-10T05:13:30.395Z,985.94
2018-12-10T05:14:30.336Z,985.96
2018-12-10T05:15:30.309Z,985.97
2018-12-10T05:16:30.219Z,985.95
2018-12-10T05:17:30.160Z,985.96
2018-12-10T05:18:30.106Z,985.97
2018-12-10T05:19:30.044Z,986.01
2018-12-10T05:20:29.984Z,985.99
2018-12-10T05:21:29.932Z,986.04
2018-12-10T05:22:29.868Z,986.03
2018-12-10T05:23:29.818Z,986.11
2018-12-10T05:24:29.750Z,986.13
2018-12-10T05:25:29.693Z,986.19
2018-12-10T05:26:29.634Z,986.20
2018-12-10T05:27:29.575Z,986.19
2018-12-10T05:28:29.517Z,986.30
2018-12-10T05:29:29.459Z,986.29
2018-12-10T05:30:29.401Z,986.27
2018-12-10T05:31:29.345Z,986.26
2018-12-10T05:32:29.291Z,986.30
2018-12-10T05:33:29.224Z,986.35
2018-12-10T05:34:29.165Z,986.36
2018-12-10T05:35:29.107Z,986.38
2018-12-10T05:36:29.049Z,986.41
2018-12-10T05:37:29.082Z,986.42
2018-12-10T05:38:28.931Z,986.43
2018-12-10T05:39:28.877Z,986.44
2018-12-10T05:40:28.814Z,986.37
2018-12-10T05:41:28.756Z,986.43
2018-12-10T05:42:28.699Z,986.46
2018-12-10T05:43:28.643Z,986.48
2018-12-10T05:44:28.580Z,986.48
2018-12-10T05:45:28.522Z,986.50
2018-12-10T05:46:28.462Z,986.52
2018-12-10T05:47:28.404Z,986.60
2018-12-10T05:48:28.345Z,986.62
2018-12-10T05:49:28.289Z,986.66
2018-12-10T05:50:28.232Z,986.67
2018-12-10T05:51:28.172Z,986.69
2018-12-10T05:52:28.111Z,986.69
2018-12-10T05:53:28.053Z,986.73
2018-12-10T05:54:28.070Z,986.75
2018-12-10T05:55:27.937Z,986.76
2018-12-10T05:56:27.877Z,986.73
2018-12-10T05:57:27.818Z,986.77
2018-12-10T05:58:27.762Z,986.78
2018-12-10T05:59:27.702Z,986.84
2018-12-10T06:00:27.643Z,986.85
2018-12-10T06:01:27.584Z,986.85
2018-12-10T06:02:27.530Z,986.91
2018-12-10T06:03:27.472Z,986.90
2018-12-10T06:04:27.409Z,986.90
2018-12-10T06:05:27.352Z,986.90
2018-12-10T06:06:27.291Z,986.88
2018-12-10T06:07:27.234Z,986.93
2018-12-10T06:08:27.256Z,986.95
2018-12-10T06:09:27.117Z,986.93
2018-12-10T06:10:27.058Z,986.94
2018-12-10T06:11:27.072Z,986.94
2018-12-10T06:12:26.942Z,987.00
2018-12-10T06:13:26.882Z,987.06
2018-12-10T06:14:26.824Z,987.07
2018-12-10T06:15:26.764Z,987.07
2018-12-10T06:16:26.706Z,987.17
2018-12-10T06:17:26.647Z,987.12
2018-12-10T06:18:26.590Z,987.17
2018-12-10T06:19:26.537Z,987.11
2018-12-10T06:20:26.469Z,987.16
2018-12-10T06:21:26.413Z,987.16
2018-12-10T06:22:26.358Z,987.15
2018-12-10T06:23:26.296Z,987.16
2018-12-10T06:24:26.241Z,987.21
2018-12-10T06:25:26.180Z,987.19
2018-12-10T06:26:26.120Z,987.21
2018-12-10T06:27:26.061Z,987.21
2018-12-10T06:28:26.002Z,987.23
2018-12-10T06:29:25.944Z,987.29
2018-12-10T06:30:25.886Z,987.26
2018-12-10T06:31:25.827Z,987.31
2018-12-10T06:32:25.768Z,987.27
2018-12-10T06:33:25.709Z,987.29
2018-12-10T06:34:25.651Z,987.31
2018-12-10T06:35:25.594Z,987.34
2018-12-10T06:36:25.535Z,987.34
2018-12-10T06:37:25.477Z,987.37
2018-12-10T06:38:25.417Z,987.37
2018-12-10T06:39:25.359Z,987.40
2018-12-10T06:40:25.298Z,987.39
2018-12-10T06:41:25.240Z,987.31
2018-12-10T06:42:25.181Z,987.36
2018-12-10T06:43:25.127Z,987.39
2018-12-10T06:44:25.063Z,987.45
2018-12-10T06:45:25.084Z,987.41
2018-12-10T06:46:24.947Z,987.46
2018-12-10T06:47:24.890Z,987.45
2018-12-10T06:48:24.829Z,987.42
2018-12-10T06:49:24.778Z,987.40
2018-12-10T06:50:24.713Z,987.47
2018-12-10T06:51:24.655Z,987.47
2018-12-10T06:52:24.595Z,987.44
2018-12-10T06:53:24.538Z,987.48
2018-12-10T06:54:24.478Z,987.45
2018-12-10T06:55:24.422Z,987.53
2018-12-10T06:56:24.361Z,987.50
2018-12-10T06:57:24.304Z,987.59
2018-12-10T06:58:24.249Z,987.55
2018-12-10T06:59:24.186Z,987.55
2018-12-10T07:00:24.134Z,987.60
2018-12-10T07:01:24.071Z,987.60
2018-12-10T07:02:24.010Z,987.67
2018-12-10T07:03:23.951Z,987.62
2018-12-10T07:04:23.893Z,987.67
2018-12-10T07:05:23.836Z,987.65
2018-12-10T07:06:23.775Z,987.73
2018-12-10T07:07:23.718Z,987.72
2018-12-10T07:08:23.657Z,987.69
2018-12-10T07:09:23.599Z,987.67
2018-12-10T07:10:23.541Z,987.71
2018-12-10T07:11:23.486Z,987.69
2018-12-10T07:12:23.423Z,987.71
2018-12-10T07:13:23.366Z,987.74
2018-12-10T07:14:23.307Z,987.78
2018-12-10T07:15:23.247Z,987.78
2018-12-10T07:16:23.189Z,987.72
2018-12-10T07:17:23.130Z,987.72
2018-12-10T07:18:23.073Z,987.73
2018-12-10T07:19:23.019Z,987.79
2018-12-10T07:20:22.954Z,987.76
2018-12-10T07:21:22.921Z,987.76
2018-12-10T07:22:22.837Z,987.79
2018-12-10T07:23:37.290Z,987.79
2018-12-10T07:24:22.780Z,987.78
2018-12-10T07:25:22.661Z,987.77
2018-12-10T07:26:22.606Z,987.87
2018-12-10T07:27:22.543Z,987.84
2018-12-10T07:28:22.484Z,987.92
2018-12-10T07:29:22.431Z,987.87
2018-12-10T07:30:22.370Z,987.91
2018-12-10T07:31:22.312Z,987.89
2018-12-10T07:32:22.255Z,987.91
2018-12-10T07:33:22.193Z,987.93
2018-12-10T07:34:22.141Z,987.91
2018-12-10T07:35:22.077Z,987.92
2018-12-10T07:36:22.015Z,987.96
2018-12-10T07:37:21.957Z,987.97
2018-12-10T07:38:21.899Z,987.94
2018-12-10T07:39:21.844Z,988.01
2018-12-10T07:40:21.782Z,987.97
2018-12-10T07:41:21.724Z,987.89
2018-12-10T07:42:21.664Z,987.90
2018-12-10T07:43:21.606Z,987.90
2018-12-10T07:44:21.632Z,987.94
2018-12-10T07:45:21.491Z,987.92
2018-12-10T07:46:21.432Z,987.90
2018-12-10T07:47:21.373Z,987.93
2018-12-10T07:48:21.315Z,987.92
2018-12-10T07:49:21.256Z,987.87
2018-12-10T07:50:21.195Z,987.93
2018-12-10T07:51:21.137Z,987.95
2018-12-10T07:52:21.078Z,987.94
2018-12-10T07:53:21.018Z,987.94
2018-12-10T07:54:20.962Z,987.98
2018-12-10T07:55:20.903Z,987.97
2018-12-10T07:56:28.828Z,988.00
2018-12-10T07:57:20.785Z,988.00
2018-12-10T07:58:20.725Z,987.98
2018-12-10T07:59:20.668Z,988.01
2018-12-10T08:00:20.612Z,988.02
2018-12-10T08:01:20.551Z,988.05
2018-12-10T08:02:20.491Z,988.03
2018-12-10T08:03:20.432Z,988.06
2018-12-10T08:04:20.373Z,988.04
2018-12-10T08:05:20.319Z,988.09
2018-12-10T08:06:20.256Z,988.05
2018-12-10T08:07:20.201Z,988.04
2018-12-10T08:08:20.147Z,988.07
2018-12-10T08:09:20.080Z,988.08
2018-12-10T08:10:20.021Z,988.10
2018-12-10T08:11:19.965Z,988.04
2018-12-10T08:12:19.908Z,988.08
2018-12-10T08:13:19.846Z,988.11
2018-12-10T08:14:19.868Z,988.07
2018-12-10T08:15:19.730Z,988.14
2018-12-10T08:16:19.669Z,988.10
2018-12-10T08:17:19.611Z,988.16
2018-12-10T08:18:19.552Z,988.15
2018-12-10T08:19:19.496Z,988.18
2018-12-10T08:20:19.436Z,988.23
2018-12-10T08:21:19.386Z,988.23
2018-12-10T08:22:19.319Z,988.27
2018-12-10T08:23:19.259Z,988.24
2018-12-10T08:24:19.207Z,988.26
2018-12-10T08:25:19.143Z,988.33
2018-12-10T08:26:19.158Z,988.28
2018-12-10T08:27:19.030Z,988.27
2018-12-10T08:28:19.001Z,988.24
2018-12-10T08:29:18.907Z,988.20
2018-12-10T08:30:18.851Z,988.29
2018-12-10T08:31:18.791Z,988.29
2018-12-10T08:32:18.731Z,988.24
2018-12-10T08:33:18.677Z,988.28
2018-12-10T08:34:18.613Z,988.26
2018-12-10T08:35:18.556Z,988.27
2018-12-10T08:36:18.498Z,988.30
2018-12-10T08:37:18.439Z,988.32
2018-12-10T08:38:18.378Z,988.35
2018-12-10T08:39:18.321Z,988.37
2018-12-10T08:40:18.492Z,988.40
2018-12-10T08:41:18.206Z,988.39
2018-12-10T08:42:18.146Z,988.48
2018-12-10T08:43:18.085Z,988.45
2018-12-10T08:44:18.025Z,988.36
2018-12-10T08:45:17.969Z,988.41
2018-12-10T08:46:17.909Z,988.50
2018-12-10T08:47:17.851Z,988.48
2018-12-10T08:48:17.791Z,988.45
2018-12-10T08:49:17.733Z,988.46
2018-12-10T08:50:17.675Z,988.48
2018-12-10T08:51:17.638Z,988.46
2018-12-10T08:52:17.556Z,988.52
2018-12-10T08:53:17.500Z,988.54
2018-12-10T08:54:17.442Z,988.56
2018-12-10T08:55:17.382Z,988.46
2018-12-10T08:56:17.325Z,988.50
2018-12-10T08:57:17.355Z,988.53
2018-12-10T08:58:17.207Z,988.53
2018-12-10T08:59:17.145Z,988.57
2018-12-10T09:00:17.087Z,988.59
2018-12-10T09:01:17.027Z,988.61
2018-12-10T09:02:16.971Z,988.61
2018-12-10T09:03:16.912Z,988.58
2018-12-10T09:04:16.854Z,988.54
2018-12-10T09:05:16.794Z,988.61
2018-12-10T09:06:16.738Z,988.59
2018-12-10T09:07:16.676Z,988.61
2018-12-10T09:08:16.618Z,988.60
2018-12-10T09:09:16.559Z,988.62
2018-12-10T09:10:16.499Z,988.61
2018-12-10T09:11:16.441Z,988.63
2018-12-10T09:12:16.384Z,988.67
2018-12-10T09:13:16.324Z,988.63
2018-12-10T09:14:16.268Z,988.65
2018-12-10T09:15:16.207Z,988.61
2018-12-10T09:16:16.151Z,988.59
2018-12-10T09:17:16.088Z,988.60
2018-12-10T09:18:16.030Z,988.59
2018-12-10T09:19:15.990Z,988.64
2018-12-10T09:20:15.912Z,988.66
2018-12-10T09:21:15.867Z,988.63
2018-12-10T09:22:15.794Z,988.66
2018-12-10T09:23:15.737Z,988.70
2018-12-10T09:24:15.682Z,988.71
2018-12-10T09:25:15.620Z,988.73
2018-12-10T09:26:15.564Z,988.69
2018-12-10T09:27:15.502Z,988.68
2018-12-10T09:28:19.415Z,988.68
2018-12-10T09:29:15.385Z,988.66
2018-12-10T09:30:15.325Z,988.69
2018-12-10T09:31:15.266Z,988.65
2018-12-10T09:32:15.208Z,988.67
2018-12-10T09:33:15.150Z,988.68
2018-12-10T09:34:15.092Z,988.70
2018-12-10T09:35:15.041Z,988.71
2018-12-10T09:36:14.972Z,988.72
2018-12-10T09:37:14.915Z,988.73
2018-12-10T09:38:14.856Z,988.72
2018-12-10T09:39:14.805Z,988.67
2018-12-10T09:40:14.738Z,988.69
2018-12-10T09:41:14.681Z,988.70
2018-12-10T09:42:14.620Z,988.76
2018-12-10T09:43:14.563Z,988.70
2018-12-10T09:44:14.503Z,988.70
2018-12-10T09:45:14.448Z,988.68
2018-12-10T09:46:14.388Z,988.69
2018-12-10T09:47:14.326Z,988.71
2018-12-10T09:48:14.267Z,988.75
2018-12-10T09:49:14.224Z,988.72
2018-12-10T09:50:14.150Z,988.71
2018-12-10T09:51:14.093Z,988.74
2018-12-10T09:52:14.035Z,988.75
2018-12-10T09:53:13.974Z,988.72
2018-12-10T09:54:13.915Z,988.72
2018-12-10T09:55:13.900Z,988.77
2018-12-10T09:56:13.797Z,988.74
2018-12-10T09:57:13.739Z,988.76
2018-12-10T09:58:13.681Z,988.82
2018-12-10T09:59:13.622Z,988.82
2018-12-10T10:00:13.564Z,988.78
2018-12-10T10:01:13.508Z,988.80
2018-12-10T10:02:13.445Z,988.84
2018-12-10T10:03:13.389Z,988.78
2018-12-10T10:04:13.327Z,988.87
2018-12-10T10:05:13.279Z,988.85
2018-12-10T10:06:13.212Z,988.85
2018-12-10T10:07:13.153Z,988.87
2018-12-10T10:08:13.093Z,988.89
2018-12-10T10:09:13.034Z,988.86
2018-12-10T10:10:12.975Z,988.79
2018-12-10T10:11:12.916Z,988.85
2018-12-10T10:12:12.858Z,988.89
2018-12-10T10:13:12.799Z,988.90
2018-12-10T10:14:12.742Z,988.83
2018-12-10T10:15:12.682Z,988.84
2018-12-10T10:16:12.625Z,988.83
2018-12-10T10:17:12.564Z,988.85
2018-12-10T10:18:12.506Z,988.81
2018-12-10T10:19:12.451Z,988.89
2018-12-10T10:20:12.388Z,988.88
2018-12-10T10:21:12.331Z,988.88
2018-12-10T10:22:12.376Z,988.90
2018-12-10T10:23:12.221Z,988.87
2018-12-10T10:24:12.158Z,988.90
2018-12-10T10:25:12.096Z,988.92
2018-12-10T10:26:12.038Z,988.94
2018-12-10T10:27:11.978Z,988.94
2018-12-10T10:28:11.920Z,988.89
2018-12-10T10:29:11.861Z,988.92
2018-12-10T10:30:11.802Z,988.92
2018-12-10T10:31:11.742Z,988.86
2018-12-10T10:32:11.683Z,988.88
2018-12-10T10:33:11.629Z,988.92
2018-12-10T10:34:11.567Z,988.97
2018-12-10T10:35:11.510Z,988.90
2018-12-10T10:36:11.448Z,988.93
2018-12-10T10:37:11.390Z,988.91
2018-12-10T10:38:11.332Z,988.86
2018-12-10T10:39:11.274Z,988.87
2018-12-10T10:40:11.215Z,989.00
2018-12-10T10:41:11.156Z,988.90
2018-12-10T10:42:11.101Z,988.91
2018-12-10T10:43:11.041Z,988.87
2018-12-10T10:44:10.983Z,988.83
2018-12-10T10:45:10.920Z,988.83
2018-12-10T10:46:10.862Z,988.87
2018-12-10T10:47:10.806Z,988.91
2018-12-10T10:48:10.747Z,988.93
2018-12-10T10:49:10.686Z,988.95
2018-12-10T10:50:10.628Z,988.90
2018-12-10T10:51:10.570Z,988.90
2018-12-10T10:52:10.513Z,988.89
2018-12-10T10:53:10.452Z,988.90
2018-12-10T10:54:10.392Z,988.86
2018-12-10T10:55:10.334Z,988.93
2018-12-10T10:56:10.274Z,988.91
2018-12-10T10:57:10.215Z,988.91
2018-12-10T10:58:10.157Z,988.85
2018-12-10T10:59:10.100Z,988.83
2018-12-10T11:00:10.039Z,988.87
2018-12-10T11:01:09.980Z,988.84
2018-12-10T11:02:09.921Z,988.86
2018-12-10T11:03:09.864Z,988.83
2018-12-10T11:04:10.654Z,988.86
2018-12-10T11:05:09.747Z,988.82
2018-12-10T11:06:09.688Z,988.79
2018-12-10T11:07:09.629Z,988.83
2018-12-10T11:08:09.570Z,988.88
2018-12-10T11:09:15.365Z,988.88
2018-12-10T11:10:09.452Z,988.89
2018-12-10T11:11:09.394Z,988.92
2018-12-10T11:12:09.334Z,988.89
2018-12-10T11:13:09.277Z,988.90
2018-12-10T11:14:09.217Z,988.83
2018-12-10T11:15:09.163Z,988.93
2018-12-10T11:16:09.099Z,988.90
2018-12-10T11:17:09.040Z,988.87
2018-12-10T11:18:08.991Z,988.92
2018-12-10T11:19:08.923Z,988.88
2018-12-10T11:20:08.864Z,988.90
2018-12-10T11:21:08.806Z,988.89
2018-12-10T11:22:08.747Z,988.94
2018-12-10T11:23:08.689Z,988.92
2018-12-10T11:24:08.632Z,988.91
2018-12-10T11:25:08.575Z,988.90
2018-12-10T11:26:08.512Z,988.96
2018-12-10T11:27:08.458Z,988.95
2018-12-10T11:28:08.394Z,988.88
2018-12-10T11:29:08.335Z,988.97
2018-12-10T11:30:08.278Z,988.94
2018-12-10T11:31:08.220Z,988.90
2018-12-10T11:32:08.160Z,988.99
2018-12-10T11:33:08.104Z,988.90
2018-12-10T11:34:08.043Z,988.92
2018-12-10T11:35:07.986Z,988.86
2018-12-10T11:36:07.925Z,988.86
2018-12-10T11:37:07.866Z,988.83
2018-12-10T11:38:07.807Z,988.81
2018-12-10T11:39:07.754Z,988.83
2018-12-10T11:40:07.692Z,988.81
2018-12-10T11:41:07.632Z,988.75
2018-12-10T11:42:07.572Z,988.77
2018-12-10T11:43:07.521Z,988.83
2018-12-10T11:44:07.455Z,988.79
2018-12-10T11:45:07.408Z,988.76
2018-12-10T11:46:07.339Z,988.77
2018-12-10T11:47:13.036Z,988.78
2018-12-10T11:48:07.220Z,988.79
2018-12-10T11:49:07.252Z,988.70
2018-12-10T11:50:07.126Z,988.68
2018-12-10T11:51:07.048Z,988.68
2018-12-10T11:52:06.986Z,988.69
2018-12-10T11:53:06.927Z,988.71
2018-12-10T11:54:06.872Z,988.61
2018-12-10T11:55:06.811Z,988.56
2018-12-10T11:56:06.750Z,988.48
2018-12-10T11:57:06.693Z,988.52
2018-12-10T11:58:06.634Z,988.54
2018-12-10T11:59:06.576Z,988.56
2018-12-10T12:00:06.521Z,988.58
2018-12-10T12:01:06.457Z,988.53
2018-12-10T12:02:06.399Z,988.50
2018-12-10T12:03:06.340Z,988.55
2018-12-10T12:04:06.280Z,988.50
2018-12-10T12:05:06.222Z,988.53
2018-12-10T12:06:06.166Z,988.56
2018-12-10T12:07:06.104Z,988.54
2018-12-10T12:08:06.153Z,988.58
2018-12-10T12:09:05.988Z,988.56
2018-12-10T12:10:05.929Z,988.55
2018-12-10T12:11:05.870Z,988.57
2018-12-10T12:12:05.812Z,988.58
2018-12-10T12:13:05.752Z,988.56
2018-12-10T12:14:05.694Z,988.57
2018-12-10T12:15:05.636Z,988.55
2018-12-10T12:16:05.574Z,988.56
2018-12-10T12:17:05.518Z,988.53
2018-12-10T12:18:05.457Z,988.53
2018-12-10T12:19:11.295Z,988.51
2018-12-10T12:20:05.341Z,988.53
2018-12-10T12:21:05.283Z,988.56
2018-12-10T12:22:05.309Z,988.47
2018-12-10T12:23:05.168Z,988.49
2018-12-10T12:24:05.105Z,988.44
2018-12-10T12:25:05.047Z,988.47
2018-12-10T12:26:04.989Z,988.48
2018-12-10T12:27:04.932Z,988.50
2018-12-10T12:28:04.870Z,988.50